Data for 06/26/2008

Time Sea-Level Adjusted Pressure Absolute Pressure Temperature Relative Humidity Dew Point   
(mb) (inHg) (mb) (inHg) (C) (F) (%) (C) (F)
00:05 1016 30 845 24.95 16.1 61 51 6.1 42.9
00:10 1016 30 845 24.95 16.1 61 50 5.7 42.2
00:15 1016 30 845 24.95 15.9 60.6 51 5.8 42.4
00:20 1016 30 845 24.95 15.8 60.5 50 5.4 41.7
00:25 1016 30 845 24.95 16 60.9 47 4.9 40.9
00:30 1016 30 845 24.95 16.3 61.3 47 4.9 40.9
00:35 1016 30 845 24.95 16 60.8 48 5.1 41.1
00:40 1016 30 845 24.95 16.2 61.1 48 5.2 41.4
00:45 1016 30 845 24.95 15.8 60.4 50 5.4 41.8
00:50 1016 30 845 24.95 15.5 59.9 49 5 41.1
00:55 1016 30 845 24.95 15.2 59.3 51 5.1 41.1
01:00 1016 30 845 24.95 14.9 58.8 51 4.9 40.8
01:05 1016 30 846 24.98 14.8 58.6 51 4.7 40.5
01:10 1016 30 846 24.98 14.9 58.7 51 5 40.9
01:15 1016 30 845 24.95 14.6 58.2 53 5.2 41.3
01:20 1016 30 845 24.95 14 57.2 55 5.3 41.5
01:25 1016 30 845 24.95 13.6 56.5 56 5.1 41.2
01:30 1016 30 846 24.98 13.5 56.2 58 5.4 41.8
01:35 1016 30 846 24.98 13.3 55.9 60 5.6 42.2
01:40 1016 30 846 24.98 13.2 55.8 59 5.4 41.6
01:45 1016 30 846 24.98 13.6 56.4 56 5 40.9
01:50 1016 30 846 24.98 13.8 56.9 54 4.9 40.8
01:55 1016 30 846 24.98 13.5 56.4 56 5.1 41.1
02:00 1016 30 846 24.98 13.3 55.9 57 5 41.1
02:05 1016 30 846 24.98 13 55.5 58 5 41
02:10 1016 30 846 24.98 12.9 55.2 59 5.1 41.1
02:15 1016 30 846 24.98 12.9 55.2 60 5.4 41.6
02:20 1016 30 846 24.98 12.8 55.1 60 5.3 41.6
02:25 1017 30.03 846 24.98 12.8 55 60 5.3 41.6
02:30 1017 30.03 846 24.98 12.7 54.8 61 5.5 41.9
02:35 1017 30.03 846 24.98 12.6 54.6 62 5.6 42
02:40 1017 30.03 846 24.98 12.5 54.4 63 5.6 42.1
02:45 1017 30.03 846 24.98 12.4 54.3 63 5.5 42
02:50 1017 30.03 846 24.98 12.5 54.6 62 5.6 42
02:55 1017 30.03 846 24.98 12.9 55.1 58 4.8 40.6
03:00 1017 30.03 846 24.98 13.8 56.8 54 4.7 40.4
03:05 1017 30.03 846 24.98 14.1 57.5 54 5.1 41.2
03:10 1017 30.03 846 24.98 13.7 56.7 56 5.2 41.4
03:15 1017 30.03 846 24.98 13.2 55.7 57 4.9 40.8
03:20 1017 30.03 846 24.98 13 55.4 57 4.8 40.6
03:25 1017 30.03 846 24.98 12.7 54.9 59 5.1 41.2
03:30 1017 30.03 846 24.98 12.4 54.3 60 4.8 40.7
03:35 1017 30.03 846 24.98 12.6 54.7 59 4.8 40.7
03:40 1017 30.03 846 24.98 12.6 54.7 61 5.4 41.8
03:45 1017 30.03 846 24.98 12.4 54.3 63 5.6 42
03:50 1017 30.03 846 24.98 12.2 54 64 5.6 42.1
03:55 1017 30.03 846 24.98 12.1 53.8 64 5.6 42
04:00 1017 30.03 846 24.98 12.2 54 63 5.4 41.7
04:05 1017 30.03 846 24.98 12.4 54.3 60 5 40.9
04:10 1017 30.03 846 24.98 12.8 55.1 59 5.2 41.3
04:15 1017 30.03 846 24.98 12.9 55.3 58 5 41
04:20 1017 30.03 846 24.98 13 55.5 57 4.8 40.7
04:25 1017 30.03 846 24.98 13.2 55.7 57 4.8 40.6
04:30 1017 30.03 846 24.98 13.2 55.8 56 4.7 40.5
04:35 1017 30.03 846 24.98 13.1 55.6 58 5.1 41.1
04:40 1017 30.03 846 24.98 12.9 55.2 58 5 40.9
04:45 1017 30.03 846 24.98 12.8 55.1 59 5.1 41.2
04:50 1017 30.03 846 24.98 12.7 54.9 58 4.7 40.5
04:55 1017 30.03 846 24.98 12.8 55.1 57 4.7 40.4
05:00 1017 30.03 846 24.98 12.7 54.8 58 4.8 40.6
05:05 1017 30.03 846 24.98 12.6 54.7 59 4.8 40.6
05:10 1017 30.03 846 24.98 12.6 54.7 58 4.7 40.5
05:15 1017 30.03 846 24.98 12.6 54.7 59 4.8 40.6
05:20 1017 30.03 846 24.98 12.7 54.8 57 4.5 40.2
05:25 1017 30.03 846 24.98 12.7 54.9 58 4.6 40.3
05:30 1017 30.03 846 24.98 12.7 54.9 57 4.5 40
05:35 1017 30.03 846 24.98 12.7 54.8 58 4.6 40.2
05:40 1017 30.03 846 24.98 12.6 54.6 58 4.6 40.3
05:45 1017 30.03 846 24.98 12.4 54.3 59 4.6 40.3
05:50 1017 30.03 846 24.98 12.4 54.3 57 4.2 39.5
05:55 1017 30.03 846 24.98 12.7 54.8 56 4.1 39.4
06:00 1017 30.03 846 24.98 12.9 55.2 55 4.2 39.6
06:05 1017 30.03 846 24.98 12.7 54.8 56 4.2 39.6
06:10 1017 30.03 846 24.98 12.7 54.9 56 4.1 39.5
06:15 1017 30.03 846 24.98 12.8 55 57 4.6 40.2
06:20 1017 30.03 846 24.98 12.7 54.8 58 4.7 40.5
06:25 1017 30.03 846 24.98 12.7 54.8 57 4.5 40.2
06:30 1017 30.03 846 24.98 12.9 55.1 57 4.7 40.4
06:35 1017 30.03 846 24.98 12.8 55 58 4.7 40.4
06:40 1017 30.03 846 24.98 12.7 54.9 58 4.8 40.7
06:45 1017 30.03 846 24.98 12.6 54.7 59 4.9 40.7
06:50 1017 30.03 846 24.98 12.6 54.7 59 4.8 40.7
06:55 1017 30.03 846 24.98 12.7 54.9 59 5 40.9
07:00 1017 30.03 846 24.98 12.7 54.8 59 5 41
07:05 1017 30.03 846 24.98 12.9 55.3 57 4.7 40.4
07:10 1017 30.03 846 24.98 13.2 55.8 56 4.7 40.4
07:15 1017 30.03 847 25.01 13.5 56.4 56 5 40.9
07:20 1017 30.03 847 25.01 13.7 56.6 57 5.4 41.8
07:25 1018 30.06 847 25.01 13.7 56.7 54 4.5 40.2
07:30 1018 30.06 847 25.01 13.8 56.8 54 4.6 40.3
07:35 1018 30.06 847 25.01 14.1 57.3 53 4.8 40.7
07:40 1018 30.06 847 25.01 14.5 58 53 5 41
07:45 1018 30.06 847 25.01 14.6 58.4 51 4.7 40.5
07:50 1018 30.06 847 25.01 14.7 58.5 54 5.6 42.1
07:55 1018 30.06 847 25.01 14.7 58.5 54 5.6 42.1
08:00 1018 30.06 847 25.01 14.6 58.3 57 6.2 43.2
08:05 1018 30.06 847 25.01 14.4 58 59 6.7 44.1
08:10 1018 30.06 847 25.01 14.4 57.9 60 6.7 44.1
08:15 1018 30.06 847 25.01 14.5 58.1 58 6.3 43.3
08:20 1018 30.06 847 25.01 14.5 58.1 58 6.5 43.6
08:25 1018 30.06 847 25.01 14.7 58.4 55 5.8 42.4
08:30 1018 30.06 847 25.01 15 59.1 53 5.6 42.1
08:35 1018 30.06 847 25.01 15.3 59.5 55 6.4 43.5
08:40 1018 30.06 847 25.01 15.6 60 53 6 42.8
08:45 1018 30.06 847 25.01 15.5 60 55 6.6 43.9
08:50 1018 30.06 847 25.01 15.8 60.4 54 6.6 43.9
08:55 1018 30.06 847 25.01 16.1 61.1 53 6.6 43.8
09:00 1017 30.03 847 25.01 16.3 61.4 53 6.8 44.2
09:05 1017 30.03 847 25.01 16.3 61.4 56 7.5 45.5
09:10 1017 30.03 847 25.01 16.2 61.2 59 8.3 47
09:15 1017 30.03 847 25.01 15.5 59.8 62 8.2 46.8
09:20 1017 30.03 847 25.01 15.3 59.5 63 8.4 47.2
09:25 1017 30.03 847 25.01 15.7 60.2 58 7.4 45.3
09:30 1017 30.03 847 25.01 16 60.8 57 7.6 45.7
09:35 1017 30.03 847 25.01 16.3 61.3 54 7.1 44.7
09:40 1017 30.03 847 25.01 16.4 61.5 54 7.2 45
09:45 1017 30.03 847 25.01 16.9 62.4 55 7.9 46.3
09:50 1017 30.03 847 25.01 17.3 63.2 53 7.9 46.2
09:55 1017 30.03 847 25.01 17.7 63.9 51 7.6 45.7
10:00 1017 30.03 846 24.98 17.8 64 52 7.8 46.1
10:05 1017 30.03 846 24.98 17.7 63.9 52 7.8 46
10:10 1017 30.03 846 24.98 18.2 64.8 49 7.6 45.6
10:15 1017 30.03 846 24.98 18.6 65.4 51 8.5 47.2
10:20 1017 30.03 846 24.98 19.3 66.8 45 7.2 44.9
10:25 1017 30.03 846 24.98 19.2 66.6 47 7.7 45.8
10:30 1017 30.03 846 24.98 19.7 67.4 41 6 42.9
10:35 1017 30.03 846 24.98 20.3 68.6 38 5.7 42.2
10:40 1017 30.03 846 24.98 21.1 69.9 38 6.2 43.2
10:45 1017 30.03 846 24.98 21.6 70.8 34 5.2 41.3
10:50 1017 30.03 846 24.98 21.6 71 33 4.7 40.4
10:55 1016 30 846 24.98 21.4 70.4 33 4.4 39.9
11:00 1016 30 846 24.98 22.2 72 26 2.2 36
11:05 1016 30 846 24.98 21.7 71.1 28 2.7 36.8
11:10 1016 30 846 24.98 22.2 72 26 2.3 36.1
11:15 1016 30 845 24.95 21.7 71.1 27 1.9 35.5
11:20 1016 30 845 24.95 22.4 72.3 27 2.7 36.9
11:25 1016 30 845 24.95 22.3 72.2 27 2.6 36.7
11:30 1016 30 845 24.95 22.5 72.5 30 4.1 39.4
11:35 1016 30 845 24.95 22.5 72.5 33 5.7 42.2
11:40 1016 30 845 24.95 22.6 72.6 33 5.5 41.8
11:45 1016 30 845 24.95 22.5 72.4 35 6.4 43.6
11:50 1016 30 845 24.95 22.2 72 35 6.1 43.1
11:55 1016 30 845 24.95 22 71.6 34 5.6 42.1
12:00 1016 30 845 24.95 22 71.6 33 5.1 41.3
12:05 1016 30 845 24.95 22.1 71.7 33 5.3 41.6
12:10 1016 30 845 24.95 22 71.6 35 5.9 42.7
12:15 1016 30 845 24.95 21.7 71 34 5.3 41.6
12:20 1016 30 845 24.95 21.6 70.8 33 5 41
12:25 1016 30 845 24.95 22 71.7 32 4.9 40.8
12:30 1016 30 845 24.95 22.6 72.7 31 5 41
12:35 1016 30 845 24.95 22.7 72.9 32 5.5 41.9
12:40 1016 30 845 24.95 22.8 73 32 5.3 41.6
12:45 1016 30 845 24.95 23 73.3 32 5.6 42
12:50 1016 30 845 24.95 23.1 73.5 32 5.7 42.3
12:55 1016 30 845 24.95 23.1 73.5 31 5.3 41.6
13:00 1016 30 845 24.95 22.9 73.3 31 5 41
13:05 1016 30 845 24.95 23.1 73.6 29 4.4 39.9
13:10 1016 30 845 24.95 22.9 73.2 29 4.2 39.5
13:15 1016 30 845 24.95 23.5 74.3 28 4.2 39.6
13:20 1016 30 845 24.95 23.6 74.4 27 3.7 38.6
13:25 1016 30 845 24.95 23.8 74.8 27 3.7 38.7
13:30 1016 30 845 24.95 23 73.5 30 4.5 40.1
13:35 1016 30 845 24.95 23.1 73.6 28 3.7 38.7
13:40 1016 30 845 24.95 23.7 74.7 28 4.5 40.1
13:45 1016 30 845 24.95 23.4 74.1 29 4.3 39.8
13:50 1016 30 845 24.95 23.3 73.9 28 4 39.2
13:55 1016 30 845 24.95 23.5 74.4 27 3.8 38.8
14:00 1016 30 845 24.95 24.1 75.3 27 4.1 39.3
14:05 1015 29.97 845 24.95 24.2 75.5 26 3.6 38.6
14:10 1015 29.97 845 24.95 24.3 75.8 25 3.2 37.7
14:15 1015 29.97 845 24.95 24.4 76 25 3.2 37.8
14:20 1015 29.97 845 24.95 23.6 74.5 27 3.5 38.3
14:25 1015 29.97 844 24.92 23 73.3 26 2.7 36.8
14:30 1015 29.97 844 24.92 23.7 74.6 26 3.1 37.5
14:35 1015 29.97 844 24.92 24.6 76.3 25 3.7 38.6
14:40 1015 29.97 844 24.92 24 75.2 26 3.4 38
14:45 1015 29.97 844 24.92 23.7 74.6 26 3.2 37.7
14:50 1015 29.97 844 24.92 24.1 75.3 27 4.1 39.4
14:55 1015 29.97 844 24.92 24.3 75.8 26 3.6 38.5
15:00 1015 29.97 844 24.92 24.7 76.5 27 4.9 40.8
15:05 1015 29.97 844 24.92 23.8 74.8 30 5.4 41.6
15:10 1015 29.97 844 24.92 23 73.4 29 4.2 39.6
15:15 1015 29.97 844 24.92 23.8 74.9 28 4.7 40.5
15:20 1015 29.97 844 24.92 24.6 76.2 27 4.6 40.3
15:25 1015 29.97 844 24.92 24.7 76.4 27 4.7 40.4
15:30 1015 29.97 844 24.92 24.8 76.7 29 5.6 42.1
15:35 1015 29.97 844 24.92 23.9 75.1 29 5 41
15:40 1015 29.97 844 24.92 24.2 75.5 30 5.6 42.1
15:45 1015 29.97 844 24.92 24.6 76.3 28 4.9 40.9
15:50 1015 29.97 844 24.92 24.3 75.8 29 5.4 41.8
15:55 1015 29.97 844 24.92 24.4 76 27 4.5 40.1
16:00 1015 29.97 844 24.92 25 76.9 26 4.4 39.9
16:05 1015 29.97 844 24.92 25.5 77.9 25 4.3 39.7
16:10 1015 29.97 844 24.92 25.9 78.7 24 4.2 39.6
16:15 1015 29.97 844 24.92 26.1 78.9 24 4.1 39.5
16:20 1015 29.97 844 24.92 25.7 78.3 24 3.7 38.6
16:25 1015 29.97 844 24.92 26 78.7 22 3 37.4
16:30 1014 29.94 844 24.92 26.2 79.2 24 4.3 39.7
16:35 1014 29.94 844 24.92 26.5 79.7 23 3.9 39
16:40 1014 29.94 844 24.92 26.8 80.3 23 4 39.3
16:45 1014 29.94 844 24.92 26.9 80.3 23 4 39.1
16:50 1014 29.94 843 24.89 26.5 79.6 23 3.9 39
16:55 1014 29.94 843 24.89 26 78.8 23 3.8 38.9
17:00 1014 29.94 843 24.89 25.7 78.2 23 3.5 38.3
17:05 1014 29.94 843 24.89 25.4 77.8 24 3.9 38.9
17:10 1014 29.94 843 24.89 25.6 78.2 24 3.7 38.7
17:15 1014 29.94 843 24.89 25.4 77.7 24 3.7 38.7
17:20 1014 29.94 843 24.89 25.3 77.5 25 3.9 39.1
17:25 1014 29.94 843 24.89 25.4 77.7 24 3.8 38.8
17:30 1014 29.94 843 24.89 25.5 78 24 4 39.1
17:35 1014 29.94 843 24.89 25.7 78.2 25 4.4 39.9
17:40 1014 29.94 843 24.89 25.6 78.1 26 4.7 40.5
17:45 1014 29.94 843 24.89 25.9 78.6 25 4.7 40.4
17:50 1014 29.94 843 24.89 26.3 79.3 25 5.1 41.2
17:55 1014 29.94 843 24.89 26.1 79 25 5 41
18:00 1014 29.94 843 24.89 25.9 78.6 25 4.4 40
18:05 1014 29.94 843 24.89 25.7 78.3 25 4.7 40.4
18:10 1014 29.94 843 24.89 26.2 79.1 24 4.3 39.8
18:15 1014 29.94 843 24.89 25.6 78.1 24 4 39.2
18:20 1014 29.94 843 24.89 25.3 77.6 24 3.5 38.2
18:25 1014 29.94 843 24.89 25.8 78.5 26 5.1 41.3
18:30 1014 29.94 843 24.89 25.6 78 26 5.1 41.2
18:35 1014 29.94 843 24.89 24.8 76.7 26 4.3 39.7
18:40 1014 29.94 843 24.89 24.5 76.1 25 3.3 38
18:45 1014 29.94 843 24.89 24.4 75.9 24 3 37.4
18:50 1014 29.94 843 24.89 24.4 75.8 25 3.4 38.2
18:55 1014 29.94 843 24.89 24.3 75.7 26 3.7 38.6
19:00 1014 29.94 843 24.89 23.9 75.1 26 3.4 38.1
19:05 1014 29.94 843 24.89 23.7 74.7 26 3.2 37.8
19:10 1014 29.94 843 24.89 23.8 74.8 27 4 39.2
19:15 1014 29.94 843 24.89 23.9 75 26 3.6 38.5
19:20 1014 29.94 843 24.89 23.8 74.8 26 3.2 37.7
19:25 1014 29.94 843 24.89 23.6 74.5 25 2.7 36.8
19:30 1014 29.94 844 24.92 23.6 74.4 28 4.3 39.7
19:35 1014 29.94 844 24.92 23.2 73.7 28 4.1 39.4
19:40 1015 29.97 844 24.92 23 73.3 29 4 39.2
19:45 1015 29.97 844 24.92 22.8 73 29 4 39.1
19:50 1015 29.97 844 24.92 22.5 72.5 29 3.9 39
19:55 1015 29.97 844 24.92 22.4 72.3 29 3.9 39.1
20:00 1015 29.97 844 24.92 22.3 72.2 30 4 39.2
20:05 1015 29.97 844 24.92 22.2 72 29 3.8 38.8
20:10 1015 29.97 844 24.92 22.1 71.8 27 2.6 36.8
20:15 1015 29.97 844 24.92 22.1 71.7 26 1.9 35.4
20:20 1015 29.97 844 24.92 22 71.7 25 1.5 34.6
20:25 1015 29.97 844 24.92 21.9 71.5 26 1.5 34.7
20:30 1015 29.97 844 24.92 21.8 71.2 26 1.5 34.8
20:35 1015 29.97 844 24.92 21.6 71 26 1.6 35
20:40 1015 29.97 844 24.92 21.6 70.9 26 1.4 34.5
20:45 1015 29.97 844 24.92 21.7 71 25 1.1 34
20:50 1015 29.97 844 24.92 21.7 71 25 1.2 34.2
20:55 1015 29.97 845 24.95 21.6 70.9 26 1.7 35
21:00 1015 29.97 845 24.95 21.5 70.7 27 1.8 35.3
21:05 1015 29.97 845 24.95 21.3 70.4 27 2 35.5
21:10 1015 29.97 845 24.95 21.2 70.2 27 1.9 35.4
21:15 1016 30 845 24.95 21.1 70 28 1.8 35.3
21:20 1016 30 845 24.95 21.1 69.9 27 1.6 34.9
21:25 1016 30 845 24.95 21 69.9 26 1.2 34.1
21:30 1016 30 845 24.95 21 69.9 26 1 33.7
21:35 1016 30 845 24.95 21 69.8 26 0.9 33.7
21:40 1016 30 845 24.95 20.9 69.5 26 1.1 33.9
21:45 1016 30 845 24.95 20.7 69.2 27 1.2 34.2
21:50 1016 30 845 24.95 20.4 68.8 28 1.4 34.5
21:55 1016 30 846 24.98 20.2 68.4 28 1.2 34.2
22:00 1016 30 846 24.98 20 68 29 1.6 34.9
22:05 1017 30.03 846 24.98 19.8 67.7 29 1.5 34.7
22:10 1017 30.03 846 24.98 19.4 67 31 2.1 35.7
22:15 1017 30.03 846 24.98 19 66.2 32 2.3 36.1
22:20 1017 30.03 846 24.98 18.7 65.7 33 2.4 36.3
22:25 1017 30.03 846 24.98 18.5 65.4 34 2.4 36.3
22:30 1017 30.03 846 24.98 18.5 65.2 33 2 35.5
22:35 1017 30.03 846 24.98 18.5 65.3 32 1.8 35.3
22:40 1017 30.03 846 24.98 18.6 65.4 33 2 35.6
22:45 1017 30.03 846 24.98 18.5 65.4 33 2 35.6
22:50 1017 30.03 846 24.98 18.5 65.3 32 1.8 35.3
22:55 1017 30.03 846 24.98 18.5 65.3 33 2 35.5
23:00 1017 30.03 847 25.01 18.4 65.2 33 2 35.5
23:05 1017 30.03 847 25.01 18.4 65 33 1.9 35.5
23:10 1017 30.03 847 25.01 18.3 65 33 1.9 35.4
23:15 1018 30.06 847 25.01 18.2 64.8 34 2.1 35.7
23:20 1018 30.06 847 25.01 18 64.4 34 2.2 35.9
23:25 1018 30.06 847 25.01 18 64.5 34 2.3 36.1
23:30 1018 30.06 847 25.01 18.1 64.5 34 2.1 35.7
23:35 1018 30.06 847 25.01 18.1 64.5 34 2 35.7
23:40 1018 30.06 847 25.01 18 64.4 34 1.9 35.4
23:45 1018 30.06 847 25.01 18.1 64.5 33 1.8 35.2
23:50 1018 30.06 847 25.01 18 64.5 33 1.8 35.3
23:55 1018 30.06 847 25.01 17.9 64.2 34 1.9 35.4
24:00 1018 30.06 847 25.01 17.8 64 34 2 35.6